Terminal Aerodrome Forecast
Issued by NWS

Home | Current Version | Previous Version | Text Only | Print | Product List | Glossary On
Versions: 1 2 3 4 5 6 7 8 9 10 11 12 13 14 15 16 17 18 19 20 21 22 23
000
FTUS42 KFFC 220543
TAFRYY
TAF
KRYY 220543Z 2206/2306 10008KT 5SM -DZ OVC010
     FM220800 09006KT 5SM -DZ BR OVC007
     FM221000 08006KT 2SM -DZ BR OVC003
     FM221600 09008KT 5SM -DZ BR OVC007
     FM230000 09011KT 5SM -DZ BR OVC004
      AMD NOT SKED 2206/2212=

USA.gov is the U.S. government's official web portal to all federal, state and local government web resources and services.